createdAt,value
2018-07-24T00:01:41.555Z,57.11
2018-07-24T00:04:48.947Z,56.75
2018-07-24T00:07:58.756Z,56.74
2018-07-24T00:11:11.636Z,55.53
2018-07-24T00:14:23.166Z,56.87
2018-07-24T00:17:29.633Z,57.56
2018-07-24T00:20:36.424Z,57.45
2018-07-24T00:23:52.374Z,57.92
2018-07-24T00:26:58.713Z,57.71
2018-07-24T00:30:09.532Z,57.36
2018-07-24T00:33:17.202Z,58.08
2018-07-24T00:36:23.585Z,58.09
2018-07-24T00:39:35.869Z,57.36
2018-07-24T00:42:40.152Z,58.74
2018-07-24T00:45:50.641Z,58.47
2018-07-24T00:48:56.577Z,58.95
2018-07-24T00:52:01.536Z,58.40
2018-07-24T00:59:20.328Z,58.79
2018-07-24T01:02:35.633Z,59.23
2018-07-24T01:05:40.507Z,59.33
2018-07-24T01:08:45.403Z,59.25
2018-07-24T01:11:50.230Z,58.93
2018-07-24T01:14:56.790Z,59.03
2018-07-24T01:18:02.584Z,59.59
2018-07-24T01:21:10.179Z,59.83
2018-07-24T01:24:17.696Z,60.31
2018-07-24T01:27:27.859Z,60.09
2018-07-24T01:30:33.766Z,60.72
2018-07-24T01:33:38.082Z,61.13
2018-07-24T01:36:42.477Z,60.72
2018-07-24T01:39:46.777Z,61.00
2018-07-24T01:42:51.517Z,61.04
2018-07-24T01:45:55.680Z,61.34
2018-07-24T01:49:00.492Z,61.12
2018-07-24T01:52:06.251Z,61.21
2018-07-24T01:55:11.921Z,60.98
2018-07-24T01:58:19.402Z,60.72
2018-07-24T02:01:25.079Z,60.88
2018-07-24T02:04:34.366Z,60.76
2018-07-24T02:07:48.366Z,60.98
2018-07-24T02:10:57.561Z,61.45
2018-07-24T02:14:01.643Z,61.40
2018-07-24T02:17:07.676Z,61.42
2018-07-24T02:20:15.469Z,61.52
2018-07-24T02:23:20.848Z,61.61
2018-07-24T02:26:28.776Z,62.24
2018-07-24T02:29:37.180Z,62.31
2018-07-24T02:32:42.837Z,62.65
2018-07-24T02:35:48.537Z,63.00
2018-07-24T02:38:52.659Z,62.99
2018-07-24T02:41:58.681Z,63.20
2018-07-24T02:45:03.016Z,63.28
2018-07-24T02:48:07.960Z,63.40
2018-07-24T02:51:14.609Z,63.58
2018-07-24T02:54:23.150Z,63.09
2018-07-24T02:57:27.077Z,63.90
2018-07-24T03:00:34.358Z,63.94
2018-07-24T03:03:39.180Z,63.91
2018-07-24T03:06:45.240Z,63.69
2018-07-24T03:09:53.137Z,64.53
2018-07-24T03:13:00.017Z,63.29
2018-07-24T03:16:04.611Z,63.54
2018-07-24T03:19:08.362Z,63.80
2018-07-24T03:22:13.199Z,63.40
2018-07-24T03:25:19.038Z,63.23
2018-07-24T03:28:24.381Z,63.38
2018-07-24T03:31:29.030Z,63.28
2018-07-24T03:34:33.799Z,63.07
2018-07-24T03:37:40.214Z,62.79
2018-07-24T03:43:56.252Z,63.45
2018-07-24T03:47:02.254Z,63.31
2018-07-24T03:50:10.913Z,63.70
2018-07-24T03:53:18.833Z,62.82
2018-07-24T03:56:26.114Z,63.39
2018-07-24T04:02:49.233Z,64.08
2018-07-24T04:05:56.707Z,63.45
2018-07-24T04:09:02.307Z,62.28
2018-07-24T04:12:12.938Z,62.60
2018-07-24T04:15:20.525Z,62.74
2018-07-24T04:18:24.451Z,63.25
2018-07-24T04:21:28.141Z,63.93
2018-07-24T04:24:31.744Z,63.08
2018-07-24T04:27:37.816Z,63.31
2018-07-24T04:30:41.586Z,63.34
2018-07-24T04:33:46.063Z,63.38
2018-07-24T04:36:52.815Z,63.89
2018-07-24T04:39:56.780Z,63.20
2018-07-24T04:43:01.068Z,63.61
2018-07-24T04:46:07.800Z,64.05
2018-07-24T04:49:15.129Z,63.90
2018-07-24T04:52:19.857Z,63.75
2018-07-24T04:55:25.528Z,64.63
2018-07-24T04:58:35.899Z,64.38
2018-07-24T05:01:42.255Z,63.94
2018-07-24T05:04:48.212Z,63.95
2018-07-24T05:07:55.737Z,63.99
2018-07-24T05:11:01.874Z,63.89
2018-07-24T05:14:07.008Z,64.31
2018-07-24T05:17:13.273Z,64.26
2018-07-24T05:20:19.461Z,63.63
2018-07-24T05:23:24.851Z,63.52
2018-07-24T05:26:28.815Z,62.66
2018-07-24T05:29:32.507Z,62.44
2018-07-24T05:32:36.224Z,62.61
2018-07-24T05:35:40.034Z,62.38
2018-07-24T05:38:43.704Z,62.15
2018-07-24T05:41:48.597Z,61.41
2018-07-24T05:44:52.374Z,61.55
2018-07-24T05:47:56.452Z,61.31
2018-07-24T05:51:00.330Z,62.09
2018-07-24T05:54:06.933Z,61.86
2018-07-24T05:57:10.815Z,61.89
2018-07-24T06:00:18.318Z,61.55
2018-07-24T06:06:38.069Z,61.65
2018-07-24T06:20:37.142Z,60.52
2018-07-24T06:31:04.134Z,59.98
2018-07-24T06:34:09.044Z,59.07
2018-07-24T06:37:17.942Z,59.74
2018-07-24T06:40:38.937Z,59.14
2018-07-24T06:43:50.763Z,59.15
2018-07-24T06:46:56.346Z,57.92
2018-07-24T06:50:01.621Z,58.51
2018-07-24T06:53:09.108Z,58.51
2018-07-24T06:56:15.126Z,57.99
2018-07-24T06:59:20.679Z,57.27
2018-07-24T07:02:27.335Z,56.81
2018-07-24T07:05:30.904Z,55.73
2018-07-24T07:08:34.630Z,55.22
2018-07-24T07:11:38.269Z,54.65
2018-07-24T07:14:41.849Z,54.66
2018-07-24T07:17:46.974Z,54.29
2018-07-24T07:21:10.396Z,54.24
2018-07-24T07:24:14.087Z,54.61
2018-07-24T07:27:18.565Z,54.94
2018-07-24T07:30:22.076Z,54.73
2018-07-24T07:33:25.682Z,52.72
2018-07-24T07:36:29.384Z,52.47
2018-07-24T07:39:33.007Z,52.71
2018-07-24T07:42:36.912Z,52.10
2018-07-24T07:45:41.395Z,51.55
2018-07-24T07:52:15.792Z,51.49
2018-07-24T07:55:20.164Z,51.54
2018-07-24T07:58:23.767Z,51.02
2018-07-24T08:01:27.579Z,50.33
2018-07-24T08:04:31.181Z,50.08
2018-07-24T08:07:35.939Z,49.67
2018-07-24T08:10:39.450Z,50.68
2018-07-24T08:13:43.170Z,49.78
2018-07-24T08:16:49.151Z,49.79
2018-07-24T08:19:52.831Z,49.48
2018-07-24T08:22:58.020Z,48.56
2018-07-24T08:26:03.388Z,48.51
2018-07-24T08:29:08.246Z,48.70
2018-07-24T08:32:12.813Z,47.85
2018-07-24T08:35:16.885Z,48.63
2018-07-24T08:38:20.987Z,47.87
2018-07-24T08:41:25.614Z,47.69
2018-07-24T08:44:29.555Z,48.20
2018-07-24T08:47:34.441Z,48.09
2018-07-24T08:50:37.995Z,47.99
2018-07-24T08:53:42.893Z,47.83
2018-07-24T08:56:46.050Z,48.59
2018-07-24T08:59:49.649Z,47.46
2018-07-24T09:02:53.280Z,48.62
2018-07-24T09:05:56.962Z,46.95
2018-07-24T09:09:00.697Z,46.32
2018-07-24T09:12:04.376Z,47.06
2018-07-24T09:15:08.051Z,45.96
2018-07-24T09:18:11.763Z,46.22
2018-07-24T09:21:17.082Z,46.26
2018-07-24T09:24:20.814Z,45.98
2018-07-24T09:27:25.897Z,46.53
2018-07-24T09:30:29.743Z,49.08
2018-07-24T09:33:33.346Z,46.21
2018-07-24T09:36:36.941Z,45.70
2018-07-24T09:39:40.607Z,45.50
2018-07-24T09:42:44.314Z,45.97
2018-07-24T09:45:47.946Z,45.05
2018-07-24T09:48:52.226Z,45.04
2018-07-24T09:51:56.664Z,45.03
2018-07-24T09:55:02.562Z,42.92
2018-07-24T09:58:06.300Z,43.71
2018-07-24T10:01:41.009Z,45.23
2018-07-24T10:04:44.704Z,44.25
2018-07-24T10:07:48.285Z,44.38
2018-07-24T10:10:52.216Z,43.59
2018-07-24T10:13:56.128Z,42.79
2018-07-24T10:16:59.751Z,44.61
2018-07-24T10:20:03.437Z,45.34
2018-07-24T10:23:07.197Z,45.06
2018-07-24T10:26:11.775Z,45.39
2018-07-24T10:29:23.127Z,44.54
2018-07-24T10:32:26.831Z,43.17
2018-07-24T10:35:30.571Z,41.69
2018-07-24T10:38:34.549Z,41.90
2018-07-24T10:41:38.358Z,39.60
2018-07-24T10:44:41.984Z,39.99
2018-07-24T10:47:46.795Z,40.48
2018-07-24T10:50:50.513Z,41.42
2018-07-24T10:53:54.315Z,40.75
2018-07-24T10:56:58.051Z,42.34
2018-07-24T11:00:01.728Z,42.29
2018-07-24T11:03:05.768Z,42.06
2018-07-24T11:06:09.552Z,42.78
2018-07-24T11:09:13.224Z,42.21
2018-07-24T11:12:16.858Z,44.19
2018-07-24T11:15:20.565Z,43.31
2018-07-24T11:18:25.240Z,41.77
2018-07-24T11:21:29.890Z,39.83
2018-07-24T11:24:35.176Z,41.03
2018-07-24T11:27:39.091Z,40.83
2018-07-24T11:30:42.968Z,40.32
2018-07-24T11:33:46.572Z,41.96
2018-07-24T11:36:50.103Z,41.95
2018-07-24T11:39:54.624Z,42.43
2018-07-24T11:42:58.192Z,42.31
2018-07-24T11:46:02.765Z,42.60
2018-07-24T11:49:06.292Z,42.07
2018-07-24T11:52:09.851Z,43.28
2018-07-24T11:55:14.065Z,44.01
2018-07-24T11:58:20.910Z,43.39
2018-07-24T12:01:24.806Z,43.52
2018-07-24T12:04:28.464Z,43.08
2018-07-24T12:07:31.956Z,42.23
2018-07-24T12:10:35.441Z,43.11
2018-07-24T12:13:39.208Z,41.80
2018-07-24T12:16:43.737Z,42.86
2018-07-24T12:19:47.711Z,42.66
2018-07-24T12:22:52.288Z,41.59
2018-07-24T12:32:58.301Z,41.38
2018-07-24T12:36:02.197Z,39.54
2018-07-24T12:39:08.666Z,39.35
2018-07-24T12:42:13.224Z,39.76
2018-07-24T12:45:17.509Z,39.05
2018-07-24T12:48:21.222Z,40.43
2018-07-24T12:51:24.960Z,39.48
2018-07-24T12:54:29.277Z,39.98
2018-07-24T12:57:33.977Z,41.15
2018-07-24T13:00:38.776Z,40.18
2018-07-24T13:03:42.412Z,40.25
2018-07-24T13:06:48.189Z,40.01
2018-07-24T13:09:52.596Z,39.28
2018-07-24T13:12:56.824Z,39.21
2018-07-24T13:16:01.323Z,38.09
2018-07-24T13:19:05.664Z,39.77
2018-07-24T13:22:09.325Z,38.95
2018-07-24T13:25:13.016Z,38.85
2018-07-24T13:28:16.631Z,38.56
2018-07-24T13:31:21.392Z,38.13
2018-07-24T13:34:25.612Z,37.68
2018-07-24T13:37:29.764Z,37.99
2018-07-24T13:40:33.435Z,37.59
2018-07-24T13:43:37.810Z,37.61
2018-07-24T13:46:41.769Z,36.92
2018-07-24T13:49:46.563Z,37.66
2018-07-24T13:52:51.102Z,37.88
2018-07-24T13:55:54.868Z,37.59
2018-07-24T13:58:58.882Z,39.76
2018-07-24T14:02:07.291Z,39.53
2018-07-24T14:05:12.249Z,39.72
2018-07-24T14:08:15.833Z,40.15
2018-07-24T14:11:20.439Z,40.76
2018-07-24T14:14:24.037Z,38.95
2018-07-24T14:17:29.105Z,39.08
2018-07-24T14:20:33.168Z,40.34
2018-07-24T14:23:37.113Z,39.42
2018-07-24T14:26:42.354Z,39.90
2018-07-24T14:29:47.062Z,40.51
2018-07-24T14:32:54.516Z,41.91
2018-07-24T14:35:58.645Z,41.37
2018-07-24T14:39:02.807Z,40.35
2018-07-24T14:42:07.168Z,39.87
2018-07-24T14:45:11.944Z,39.94
2018-07-24T14:48:16.395Z,40.43
2018-07-24T14:51:20.818Z,39.30
2018-07-24T14:54:24.447Z,40.32
2018-07-24T14:57:30.044Z,38.65
2018-07-24T15:00:34.385Z,39.05
2018-07-24T15:03:39.151Z,39.71
2018-07-24T15:06:43.497Z,39.54
2018-07-24T15:09:47.288Z,39.75
2018-07-24T15:12:52.472Z,38.92
2018-07-24T15:15:58.015Z,39.02
2018-07-24T15:19:02.640Z,39.37
2018-07-24T15:22:07.453Z,39.60
2018-07-24T15:25:13.812Z,39.74
2018-07-24T15:28:18.295Z,39.32
2018-07-24T15:31:24.563Z,39.50
2018-07-24T15:34:30.827Z,39.70
2018-07-24T15:41:02.576Z,39.03
2018-07-24T15:44:07.285Z,40.28
2018-07-24T15:47:13.655Z,39.05
2018-07-24T15:50:20.436Z,40.28
2018-07-24T15:53:25.676Z,39.09
2018-07-24T15:56:33.054Z,38.89
2018-07-24T15:59:36.760Z,39.80
2018-07-24T16:02:41.505Z,39.91
2018-07-24T16:05:46.055Z,39.69
2018-07-24T16:08:51.627Z,40.23
2018-07-24T16:11:55.937Z,39.57
2018-07-24T16:14:59.841Z,40.39
2018-07-24T16:18:03.690Z,41.31
2018-07-24T16:21:08.421Z,41.01
2018-07-24T16:24:12.073Z,39.52
2018-07-24T16:27:16.512Z,39.84
2018-07-24T16:30:21.252Z,40.05
2018-07-24T16:33:25.860Z,40.17
2018-07-24T16:36:30.636Z,40.35
2018-07-24T16:39:34.341Z,40.62
2018-07-24T16:42:38.144Z,41.11
2018-07-24T16:45:41.914Z,40.51
2018-07-24T16:48:46.513Z,40.25
2018-07-24T16:51:51.144Z,40.39
2018-07-24T16:54:54.883Z,40.08
2018-07-24T16:58:00.313Z,40.95
2018-07-24T17:01:05.299Z,40.84
2018-07-24T17:04:11.584Z,40.99
2018-07-24T17:07:15.481Z,41.79
2018-07-24T17:10:19.262Z,41.18
2018-07-24T17:13:23.618Z,40.88
2018-07-24T17:16:30.041Z,42.16
2018-07-24T17:19:38.417Z,41.66
2018-07-24T17:22:42.883Z,41.46
2018-07-24T17:25:49.152Z,41.66
2018-07-24T17:28:54.352Z,42.41
2018-07-24T17:31:59.949Z,43.21
2018-07-24T17:35:03.760Z,42.54
2018-07-24T17:38:09.517Z,42.68
2018-07-24T17:41:13.909Z,43.06
2018-07-24T17:44:17.392Z,42.77
2018-07-24T17:47:20.833Z,43.45
2018-07-24T17:50:24.475Z,44.45
2018-07-24T17:53:28.251Z,44.82
2018-07-24T17:56:31.728Z,44.14
2018-07-24T17:59:35.330Z,45.09
2018-07-24T18:02:39.590Z,44.35
2018-07-24T18:05:44.100Z,45.78
2018-07-24T18:08:47.563Z,45.30
2018-07-24T18:11:51.116Z,45.55
2018-07-24T18:14:55.245Z,45.70
2018-07-24T18:17:58.930Z,46.40
2018-07-24T18:21:02.546Z,46.89
2018-07-24T18:24:06.657Z,46.42
2018-07-24T18:27:10.644Z,46.45
2018-07-24T18:30:14.465Z,47.55
2018-07-24T18:33:19.102Z,48.24
2018-07-24T18:36:25.892Z,48.53
2018-07-24T18:39:32.323Z,49.58
2018-07-24T18:42:43.522Z,49.96
2018-07-24T18:45:48.711Z,50.26
2018-07-24T18:48:57.753Z,50.85
2018-07-24T18:52:14.641Z,50.97
2018-07-24T18:55:25.849Z,51.04
2018-07-24T18:58:33.209Z,51.23
2018-07-24T19:01:37.877Z,51.27
2018-07-24T19:04:50.479Z,51.64
2018-07-24T19:08:05.187Z,51.93
2018-07-24T19:11:21.017Z,51.58
2018-07-24T19:14:27.867Z,52.73
2018-07-24T19:28:27.670Z,50.74
2018-07-24T20:01:55.685Z,51.34
2018-07-24T20:05:07.189Z,51.29
2018-07-24T20:08:24.618Z,51.86
2018-07-24T20:11:36.086Z,51.35
2018-07-24T20:14:57.605Z,51.55
2018-07-24T20:18:03.025Z,52.36
2018-07-24T20:21:18.406Z,52.18
2018-07-24T20:24:24.106Z,52.58
2018-07-24T20:49:43.431Z,52.72
2018-07-24T20:52:48.983Z,51.97
2018-07-24T20:55:55.192Z,52.82
2018-07-24T20:59:05.386Z,52.68
2018-07-24T21:02:27.558Z,53.00
2018-07-24T21:05:52.218Z,52.46
2018-07-24T21:08:57.370Z,53.59
2018-07-24T21:12:07.695Z,53.36
2018-07-24T21:22:38.506Z,52.62
2018-07-24T21:26:15.477Z,53.08
2018-07-24T21:29:20.926Z,53.61
2018-07-24T21:32:26.429Z,53.78
2018-07-24T21:35:31.906Z,53.81
2018-07-24T21:38:35.804Z,53.86
2018-07-24T21:41:41.798Z,53.45
2018-07-24T21:44:46.234Z,53.19
2018-07-24T21:47:53.539Z,53.79
2018-07-24T21:51:15.195Z,53.77
2018-07-24T21:54:19.375Z,54.51
2018-07-24T21:57:25.903Z,54.18
2018-07-24T22:00:34.494Z,54.19
2018-07-24T22:03:40.279Z,54.15
2018-07-24T22:06:44.932Z,53.48
2018-07-24T22:09:49.811Z,54.73
2018-07-24T22:12:54.692Z,54.05
2018-07-24T22:15:58.937Z,53.71
2018-07-24T22:19:06.442Z,54.90
2018-07-24T22:22:10.257Z,54.63
2018-07-24T22:25:18.994Z,55.42
2018-07-24T22:28:22.618Z,54.75
2018-07-24T22:31:26.302Z,54.39
2018-07-24T22:34:30.310Z,54.62
2018-07-24T22:37:33.952Z,55.34
2018-07-24T22:40:37.468Z,54.96
2018-07-24T22:43:43.634Z,55.03
2018-07-24T22:46:48.397Z,55.13
2018-07-24T22:49:53.381Z,55.39
2018-07-24T22:52:57.093Z,55.80
2018-07-24T22:56:00.746Z,55.68
2018-07-24T22:59:05.062Z,55.78
2018-07-24T23:02:08.700Z,55.77
2018-07-24T23:05:13.094Z,55.82
2018-07-24T23:08:16.933Z,55.78
2018-07-24T23:11:20.605Z,55.93
2018-07-24T23:14:24.127Z,56.21
2018-07-24T23:17:27.876Z,57.04
2018-07-24T23:20:31.543Z,57.20
2018-07-24T23:23:35.821Z,57.42
2018-07-24T23:26:39.420Z,57.46
2018-07-24T23:29:44.034Z,57.34
2018-07-24T23:32:47.697Z,58.21
2018-07-24T23:35:51.795Z,57.87
2018-07-24T23:38:55.878Z,58.11
2018-07-24T23:42:00.265Z,57.68
2018-07-24T23:45:03.964Z,58.22
2018-07-24T23:48:07.598Z,58.35
2018-07-24T23:51:12.216Z,58.61
2018-07-24T23:54:15.776Z,58.26
2018-07-24T23:57:20.421Z,59.17
